sensor_id;sensor_type;location;lat;lon;timestamp;P1;durP1;ratioP1;P2;durP2;ratioP2
54412;SDS011;41533;51.390;0.074;2022-09-29T00:02:12;3.17;;;1.50;;
54412;SDS011;41533;51.390;0.074;2022-09-29T00:04:39;2.63;;;1.77;;
54412;SDS011;41533;51.390;0.074;2022-09-29T00:07:06;2.63;;;1.70;;
54412;SDS011;41533;51.390;0.074;2022-09-29T00:09:33;4.22;;;1.73;;
54412;SDS011;41533;51.390;0.074;2022-09-29T00:12:01;2.55;;;1.83;;
54412;SDS011;41533;51.390;0.074;2022-09-29T00:14:28;3.13;;;1.55;;
54412;SDS011;41533;51.390;0.074;2022-09-29T00:16:55;2.65;;;1.50;;
54412;SDS011;41533;51.390;0.074;2022-09-29T00:19:23;2.28;;;1.55;;
54412;SDS011;41533;51.390;0.074;2022-09-29T00:21:51;3.53;;;1.40;;
54412;SDS011;41533;51.390;0.074;2022-09-29T00:24:18;4.40;;;1.90;;
54412;SDS011;41533;51.390;0.074;2022-09-29T00:26:46;3.10;;;1.77;;
54412;SDS011;41533;51.390;0.074;2022-09-29T00:29:13;3.08;;;1.70;;
54412;SDS011;41533;51.390;0.074;2022-09-29T00:31:40;4.45;;;1.50;;
54412;SDS011;41533;51.390;0.074;2022-09-29T00:34:08;2.88;;;1.40;;
54412;SDS011;41533;51.390;0.074;2022-09-29T00:36:35;3.30;;;1.60;;
54412;SDS011;41533;51.390;0.074;2022-09-29T00:39:02;1.95;;;1.50;;
54412;SDS011;41533;51.390;0.074;2022-09-29T00:41:31;6.22;;;1.38;;
54412;SDS011;41533;51.390;0.074;2022-09-29T00:43:59;3.00;;;1.80;;
54412;SDS011;41533;51.390;0.074;2022-09-29T00:46:29;2.00;;;1.40;;
54412;SDS011;41533;51.390;0.074;2022-09-29T00:49:01;2.70;;;1.90;;
54412;SDS011;41533;51.390;0.074;2022-09-29T00:51:29;2.70;;;1.60;;
54412;SDS011;41533;51.390;0.074;2022-09-29T00:53:57;3.72;;;1.77;;
54412;SDS011;41533;51.390;0.074;2022-09-29T00:56:25;2.97;;;2.00;;
54412;SDS011;41533;51.390;0.074;2022-09-29T00:58:53;3.13;;;1.83;;
54412;SDS011;41533;51.390;0.074;2022-09-29T01:01:22;2.40;;;1.73;;
54412;SDS011;41533;51.390;0.074;2022-09-29T01:03:50;3.00;;;1.60;;
54412;SDS011;41533;51.390;0.074;2022-09-29T01:06:20;2.58;;;1.88;;
54412;SDS011;41533;51.390;0.074;2022-09-29T01:08:53;1.60;;;1.40;;
54412;SDS011;41533;51.390;0.074;2022-09-29T01:11:24;2.25;;;1.67;;
54412;SDS011;41533;51.390;0.074;2022-09-29T01:13:52;2.38;;;1.50;;
54412;SDS011;41533;51.390;0.074;2022-09-29T01:16:20;2.08;;;1.40;;
54412;SDS011;41533;51.390;0.074;2022-09-29T01:18:47;3.13;;;1.52;;
54412;SDS011;41533;51.390;0.074;2022-09-29T01:21:24;2.55;;;1.98;;
54412;SDS011;41533;51.390;0.074;2022-09-29T01:34:33;2.33;;;1.58;;
54412;SDS011;41533;51.390;0.074;2022-09-29T01:37:39;2.33;;;1.38;;
54412;SDS011;41533;51.390;0.074;2022-09-29T01:40:19;1.90;;;1.40;;
54412;SDS011;41533;51.390;0.074;2022-09-29T01:45:12;1.30;;;0.90;;
54412;SDS011;41533;51.390;0.074;2022-09-29T01:47:43;1.60;;;1.13;;
54412;SDS011;41533;51.390;0.074;2022-09-29T01:50:16;3.00;;;1.60;;
54412;SDS011;41533;51.390;0.074;2022-09-29T01:52:45;2.53;;;1.80;;
54412;SDS011;41533;51.390;0.074;2022-09-29T01:55:18;3.90;;;1.67;;
54412;SDS011;41533;51.390;0.074;2022-09-29T01:58:01;2.75;;;1.58;;
54412;SDS011;41533;51.390;0.074;2022-09-29T02:00:34;3.05;;;1.20;;
54412;SDS011;41533;51.390;0.074;2022-09-29T02:05:54;3.80;;;1.73;;
54412;SDS011;41533;51.390;0.074;2022-09-29T02:10:50;3.33;;;1.83;;
54412;SDS011;41533;51.390;0.074;2022-09-29T02:13:19;2.47;;;1.60;;
54412;SDS011;41533;51.390;0.074;2022-09-29T02:15:47;3.75;;;1.80;;
54412;SDS011;41533;51.390;0.074;2022-09-29T02:18:17;2.08;;;1.50;;
54412;SDS011;41533;51.390;0.074;2022-09-29T02:20:46;1.83;;;1.38;;
54412;SDS011;41533;51.390;0.074;2022-09-29T02:23:13;1.63;;;1.50;;
54412;SDS011;41533;51.390;0.074;2022-09-29T02:25:41;3.63;;;1.35;;
54412;SDS011;41533;51.390;0.074;2022-09-29T02:28:09;1.90;;;1.20;;
54412;SDS011;41533;51.390;0.074;2022-09-29T02:30:36;3.05;;;1.73;;
54412;SDS011;41533;51.390;0.074;2022-09-29T02:33:03;1.73;;;1.23;;
54412;SDS011;41533;51.390;0.074;2022-09-29T02:35:43;2.97;;;1.10;;
54412;SDS011;41533;51.390;0.074;2022-09-29T02:38:15;1.50;;;1.38;;
54412;SDS011;41533;51.390;0.074;2022-09-29T02:40:57;2.45;;;1.30;;
54412;SDS011;41533;51.390;0.074;2022-09-29T02:51:38;5.30;;;1.67;;
54412;SDS011;41533;51.390;0.074;2022-09-29T02:59:20;4.28;;;1.30;;
54412;SDS011;41533;51.390;0.074;2022-09-29T03:01:52;1.55;;;1.30;;
54412;SDS011;41533;51.390;0.074;2022-09-29T03:04:20;2.28;;;1.50;;
54412;SDS011;41533;51.390;0.074;2022-09-29T03:06:48;1.42;;;1.15;;
54412;SDS011;41533;51.390;0.074;2022-09-29T03:09:15;1.92;;;1.15;;
54412;SDS011;41533;51.390;0.074;2022-09-29T03:11:42;1.70;;;1.30;;
54412;SDS011;41533;51.390;0.074;2022-09-29T03:14:10;1.52;;;1.25;;
54412;SDS011;41533;51.390;0.074;2022-09-29T03:16:37;1.25;;;1.15;;
54412;SDS011;41533;51.390;0.074;2022-09-29T03:19:04;2.38;;;1.70;;
54412;SDS011;41533;51.390;0.074;2022-09-29T03:21:31;3.33;;;1.50;;
54412;SDS011;41533;51.390;0.074;2022-09-29T03:23:59;1.70;;;1.27;;
54412;SDS011;41533;51.390;0.074;2022-09-29T03:26:26;3.20;;;1.60;;
54412;SDS011;41533;51.390;0.074;2022-09-29T03:28:53;1.25;;;1.05;;
54412;SDS011;41533;51.390;0.074;2022-09-29T03:31:21;2.30;;;1.15;;
54412;SDS011;41533;51.390;0.074;2022-09-29T03:33:48;3.05;;;1.40;;
54412;SDS011;41533;51.390;0.074;2022-09-29T03:36:15;2.10;;;1.20;;
54412;SDS011;41533;51.390;0.074;2022-09-29T03:38:42;2.30;;;1.45;;
54412;SDS011;41533;51.390;0.074;2022-09-29T03:41:12;2.03;;;1.00;;
54412;SDS011;41533;51.390;0.074;2022-09-29T03:43:40;3.25;;;1.48;;
54412;SDS011;41533;51.390;0.074;2022-09-29T03:46:07;1.65;;;1.33;;
54412;SDS011;41533;51.390;0.074;2022-09-29T03:48:34;1.08;;;0.90;;
54412;SDS011;41533;51.390;0.074;2022-09-29T03:51:02;2.53;;;1.40;;
54412;SDS011;41533;51.390;0.074;2022-09-29T03:53:29;2.58;;;1.48;;
54412;SDS011;41533;51.390;0.074;2022-09-29T03:55:57;1.35;;;1.10;;
54412;SDS011;41533;51.390;0.074;2022-09-29T03:58:24;1.40;;;1.10;;
54412;SDS011;41533;51.390;0.074;2022-09-29T04:00:51;2.15;;;1.02;;
54412;SDS011;41533;51.390;0.074;2022-09-29T04:03:19;1.08;;;0.93;;
54412;SDS011;41533;51.390;0.074;2022-09-29T04:05:47;2.13;;;1.15;;
54412;SDS011;41533;51.390;0.074;2022-09-29T04:08:14;1.48;;;1.08;;
54412;SDS011;41533;51.390;0.074;2022-09-29T04:10:42;1.42;;;1.00;;
54412;SDS011;41533;51.390;0.074;2022-09-29T04:13:11;2.72;;;1.40;;
54412;SDS011;41533;51.390;0.074;2022-09-29T04:15:42;2.22;;;1.02;;
54412;SDS011;41533;51.390;0.074;2022-09-29T04:18:09;1.17;;;1.00;;
54412;SDS011;41533;51.390;0.074;2022-09-29T04:20:36;1.38;;;1.10;;
54412;SDS011;41533;51.390;0.074;2022-09-29T04:23:04;2.38;;;1.10;;
54412;SDS011;41533;51.390;0.074;2022-09-29T04:25:32;2.88;;;1.20;;
54412;SDS011;41533;51.390;0.074;2022-09-29T04:28:00;1.27;;;0.90;;
54412;SDS011;41533;51.390;0.074;2022-09-29T04:30:27;2.40;;;0.95;;
54412;SDS011;41533;51.390;0.074;2022-09-29T04:32:54;1.10;;;1.00;;
54412;SDS011;41533;51.390;0.074;2022-09-29T04:35:21;1.70;;;1.10;;
54412;SDS011;41533;51.390;0.074;2022-09-29T04:37:49;2.25;;;0.98;;
54412;SDS011;41533;51.390;0.074;2022-09-29T04:40:20;1.15;;;0.90;;
54412;SDS011;41533;51.390;0.074;2022-09-29T04:42:47;1.27;;;1.10;;
54412;SDS011;41533;51.390;0.074;2022-09-29T04:45:14;1.20;;;0.88;;
54412;SDS011;41533;51.390;0.074;2022-09-29T04:47:41;2.15;;;1.02;;
54412;SDS011;41533;51.390;0.074;2022-09-29T04:50:09;2.33;;;0.98;;
54412;SDS011;41533;51.390;0.074;2022-09-29T04:52:36;1.52;;;1.15;;
54412;SDS011;41533;51.390;0.074;2022-09-29T04:55:03;2.25;;;1.10;;
54412;SDS011;41533;51.390;0.074;2022-09-29T04:57:30;1.02;;;0.93;;
54412;SDS011;41533;51.390;0.074;2022-09-29T04:59:57;1.92;;;1.08;;
54412;SDS011;41533;51.390;0.074;2022-09-29T05:02:25;1.65;;;1.13;;
54412;SDS011;41533;51.390;0.074;2022-09-29T05:04:52;0.70;;;0.70;;
54412;SDS011;41533;51.390;0.074;2022-09-29T05:07:19;2.78;;;1.25;;
54412;SDS011;41533;51.390;0.074;2022-09-29T05:09:46;1.02;;;0.90;;
54412;SDS011;41533;51.390;0.074;2022-09-29T05:12:14;1.60;;;0.93;;
54412;SDS011;41533;51.390;0.074;2022-09-29T05:14:41;3.17;;;1.20;;
54412;SDS011;41533;51.390;0.074;2022-09-29T05:17:08;1.67;;;0.98;;
54412;SDS011;41533;51.390;0.074;2022-09-29T05:19:35;3.20;;;1.10;;
54412;SDS011;41533;51.390;0.074;2022-09-29T05:22:02;1.90;;;1.20;;
54412;SDS011;41533;51.390;0.074;2022-09-29T05:24:30;1.92;;;0.90;;
54412;SDS011;41533;51.390;0.074;2022-09-29T05:26:57;0.88;;;0.82;;
54412;SDS011;41533;51.390;0.074;2022-09-29T05:29:24;1.45;;;1.10;;
54412;SDS011;41533;51.390;0.074;2022-09-29T05:31:51;1.25;;;0.85;;
54412;SDS011;41533;51.390;0.074;2022-09-29T05:34:19;1.05;;;0.85;;
54412;SDS011;41533;51.390;0.074;2022-09-29T05:36:46;1.13;;;0.88;;
54412;SDS011;41533;51.390;0.074;2022-09-29T05:39:13;2.85;;;0.90;;
54412;SDS011;41533;51.390;0.074;2022-09-29T05:41:41;1.33;;;0.90;;
54412;SDS011;41533;51.390;0.074;2022-09-29T05:44:08;2.25;;;1.08;;
54412;SDS011;41533;51.390;0.074;2022-09-29T05:46:35;3.15;;;1.40;;
54412;SDS011;41533;51.390;0.074;2022-09-29T05:49:03;1.70;;;1.00;;
54412;SDS011;41533;51.390;0.074;2022-09-29T05:51:30;1.25;;;0.85;;
54412;SDS011;41533;51.390;0.074;2022-09-29T05:53:57;2.92;;;0.80;;
54412;SDS011;41533;51.390;0.074;2022-09-29T05:56:25;2.15;;;1.13;;
54412;SDS011;41533;51.390;0.074;2022-09-29T05:58:52;1.38;;;1.15;;
54412;SDS011;41533;51.390;0.074;2022-09-29T06:01:23;1.40;;;0.82;;
54412;SDS011;41533;51.390;0.074;2022-09-29T06:03:54;3.03;;;0.93;;
54412;SDS011;41533;51.390;0.074;2022-09-29T06:06:25;1.42;;;0.77;;
54412;SDS011;41533;51.390;0.074;2022-09-29T06:08:54;1.02;;;0.80;;
54412;SDS011;41533;51.390;0.074;2022-09-29T06:11:22;2.80;;;1.08;;
54412;SDS011;41533;51.390;0.074;2022-09-29T06:13:50;2.35;;;1.30;;
54412;SDS011;41533;51.390;0.074;2022-09-29T06:16:18;1.60;;;1.15;;
54412;SDS011;41533;51.390;0.074;2022-09-29T06:18:46;1.00;;;0.90;;
54412;SDS011;41533;51.390;0.074;2022-09-29T06:21:17;3.15;;;0.93;;
54412;SDS011;41533;51.390;0.074;2022-09-29T06:23:45;1.35;;;0.80;;
54412;SDS011;41533;51.390;0.074;2022-09-29T06:26:13;2.05;;;0.85;;
54412;SDS011;41533;51.390;0.074;2022-09-29T06:28:40;1.73;;;0.90;;
54412;SDS011;41533;51.390;0.074;2022-09-29T06:31:12;0.73;;;0.65;;
54412;SDS011;41533;51.390;0.074;2022-09-29T06:33:39;1.25;;;0.80;;
54412;SDS011;41533;51.390;0.074;2022-09-29T06:36:09;2.13;;;1.00;;
54412;SDS011;41533;51.390;0.074;2022-09-29T06:38:55;1.02;;;0.93;;
54412;SDS011;41533;51.390;0.074;2022-09-29T06:41:23;1.05;;;0.90;;
54412;SDS011;41533;51.390;0.074;2022-09-29T06:43:50;1.20;;;0.88;;
54412;SDS011;41533;51.390;0.074;2022-09-29T06:46:17;1.63;;;0.85;;
54412;SDS011;41533;51.390;0.074;2022-09-29T06:48:45;1.50;;;0.93;;
54412;SDS011;41533;51.390;0.074;2022-09-29T06:51:12;0.65;;;0.60;;
54412;SDS011;41533;51.390;0.074;2022-09-29T06:53:40;2.30;;;0.95;;
54412;SDS011;41533;51.390;0.074;2022-09-29T06:56:08;1.45;;;1.00;;
54412;SDS011;41533;51.390;0.074;2022-09-29T06:58:35;2.03;;;1.02;;
54412;SDS011;41533;51.390;0.074;2022-09-29T07:01:02;2.63;;;0.98;;
54412;SDS011;41533;51.390;0.074;2022-09-29T07:03:32;1.30;;;0.75;;
54412;SDS011;41533;51.390;0.074;2022-09-29T07:06:03;1.67;;;0.77;;
54412;SDS011;41533;51.390;0.074;2022-09-29T07:08:46;0.95;;;0.90;;
54412;SDS011;41533;51.390;0.074;2022-09-29T07:11:13;1.77;;;0.80;;
54412;SDS011;41533;51.390;0.074;2022-09-29T07:13:42;1.13;;;0.80;;
54412;SDS011;41533;51.390;0.074;2022-09-29T07:16:10;3.10;;;1.10;;
54412;SDS011;41533;51.390;0.074;2022-09-29T07:18:39;1.50;;;1.02;;
54412;SDS011;41533;51.390;0.074;2022-09-29T07:21:07;1.27;;;0.98;;
54412;SDS011;41533;51.390;0.074;2022-09-29T07:23:36;1.05;;;0.85;;
54412;SDS011;41533;51.390;0.074;2022-09-29T07:26:04;0.95;;;0.90;;
54412;SDS011;41533;51.390;0.074;2022-09-29T07:28:32;2.05;;;1.02;;
54412;SDS011;41533;51.390;0.074;2022-09-29T07:33:39;4.00;;;2.58;;
54412;SDS011;41533;51.390;0.074;2022-09-29T07:36:07;0.75;;;0.73;;
54412;SDS011;41533;51.390;0.074;2022-09-29T07:38:34;2.58;;;1.33;;
54412;SDS011;41533;51.390;0.074;2022-09-29T07:41:02;1.67;;;0.90;;
54412;SDS011;41533;51.390;0.074;2022-09-29T07:43:30;2.65;;;0.90;;
54412;SDS011;41533;51.390;0.074;2022-09-29T07:45:57;1.63;;;0.98;;
54412;SDS011;41533;51.390;0.074;2022-09-29T07:48:26;0.85;;;0.70;;
54412;SDS011;41533;51.390;0.074;2022-09-29T07:51:07;1.63;;;0.77;;
54412;SDS011;41533;51.390;0.074;2022-09-29T07:53:36;1.05;;;0.63;;
54412;SDS011;41533;51.390;0.074;2022-09-29T07:56:04;0.88;;;0.75;;
54412;SDS011;41533;51.390;0.074;2022-09-29T07:58:32;1.27;;;0.80;;
54412;SDS011;41533;51.390;0.074;2022-09-29T08:01:00;1.35;;;0.98;;
54412;SDS011;41533;51.390;0.074;2022-09-29T08:03:27;2.45;;;1.05;;
54412;SDS011;41533;51.390;0.074;2022-09-29T08:05:56;0.68;;;0.57;;
54412;SDS011;41533;51.390;0.074;2022-09-29T08:08:26;0.85;;;0.77;;
54412;SDS011;41533;51.390;0.074;2022-09-29T08:11:00;1.38;;;0.60;;
54412;SDS011;41533;51.390;0.074;2022-09-29T08:13:27;1.20;;;0.88;;
54412;SDS011;41533;51.390;0.074;2022-09-29T08:15:57;1.90;;;1.33;;
54412;SDS011;41533;51.390;0.074;2022-09-29T08:18:28;2.22;;;0.75;;
54412;SDS011;41533;51.390;0.074;2022-09-29T08:20:55;1.88;;;0.80;;
54412;SDS011;41533;51.390;0.074;2022-09-29T08:23:24;1.00;;;0.93;;
54412;SDS011;41533;51.390;0.074;2022-09-29T08:26:02;1.35;;;0.88;;
54412;SDS011;41533;51.390;0.074;2022-09-29T08:28:30;3.30;;;0.88;;
54412;SDS011;41533;51.390;0.074;2022-09-29T08:31:05;1.40;;;0.75;;
54412;SDS011;41533;51.390;0.074;2022-09-29T08:33:34;3.22;;;0.93;;
54412;SDS011;41533;51.390;0.074;2022-09-29T08:36:01;1.77;;;0.85;;
54412;SDS011;41533;51.390;0.074;2022-09-29T08:38:31;3.58;;;1.33;;
54412;SDS011;41533;51.390;0.074;2022-09-29T08:41:01;2.92;;;1.13;;
54412;SDS011;41533;51.390;0.074;2022-09-29T08:43:30;2.10;;;0.60;;
54412;SDS011;41533;51.390;0.074;2022-09-29T08:46:03;1.15;;;0.82;;
54412;SDS011;41533;51.390;0.074;2022-09-29T08:48:32;1.25;;;0.80;;
54412;SDS011;41533;51.390;0.074;2022-09-29T08:51:02;1.80;;;0.70;;
54412;SDS011;41533;51.390;0.074;2022-09-29T08:53:31;2.00;;;0.70;;
54412;SDS011;41533;51.390;0.074;2022-09-29T08:56:03;2.63;;;0.90;;
54412;SDS011;41533;51.390;0.074;2022-09-29T08:58:32;0.57;;;0.57;;
54412;SDS011;41533;51.390;0.074;2022-09-29T09:08:40;1.25;;;1.02;;
54412;SDS011;41533;51.390;0.074;2022-09-29T09:14:24;1.95;;;1.40;;
54412;SDS011;41533;51.390;0.074;2022-09-29T09:19:39;1.80;;;1.40;;
54412;SDS011;41533;51.390;0.074;2022-09-29T09:22:21;1.75;;;1.30;;
54412;SDS011;41533;51.390;0.074;2022-09-29T09:25:00;1.02;;;0.63;;
54412;SDS011;41533;51.390;0.074;2022-09-29T09:27:32;0.68;;;0.60;;
54412;SDS011;41533;51.390;0.074;2022-09-29T09:30:04;1.40;;;0.85;;
54412;SDS011;41533;51.390;0.074;2022-09-29T09:32:34;3.03;;;0.80;;
54412;SDS011;41533;51.390;0.074;2022-09-29T09:35:07;1.40;;;0.80;;
54412;SDS011;41533;51.390;0.074;2022-09-29T09:37:49;1.65;;;1.00;;
54412;SDS011;41533;51.390;0.074;2022-09-29T09:40:19;0.98;;;0.80;;
54412;SDS011;41533;51.390;0.074;2022-09-29T09:42:49;1.00;;;0.75;;
54412;SDS011;41533;51.390;0.074;2022-09-29T09:47:57;0.70;;;0.70;;
54412;SDS011;41533;51.390;0.074;2022-09-29T09:50:25;3.45;;;0.85;;
54412;SDS011;41533;51.390;0.074;2022-09-29T09:53:36;0.85;;;0.77;;
54412;SDS011;41533;51.390;0.074;2022-09-29T09:55:43;0.57;;;0.57;;
54412;SDS011;41533;51.390;0.074;2022-09-29T10:00:54;1.85;;;0.80;;
54412;SDS011;41533;51.390;0.074;2022-09-29T10:03:23;0.82;;;0.70;;
54412;SDS011;41533;51.390;0.074;2022-09-29T10:05:50;0.90;;;0.88;;
54412;SDS011;41533;51.390;0.074;2022-09-29T10:08:25;1.05;;;0.60;;
54412;SDS011;41533;51.390;0.074;2022-09-29T10:10:53;2.80;;;1.00;;
54412;SDS011;41533;51.390;0.074;2022-09-29T10:13:26;1.92;;;0.80;;
54412;SDS011;41533;51.390;0.074;2022-09-29T10:18:39;2.85;;;1.00;;
54412;SDS011;41533;51.390;0.074;2022-09-29T10:23:55;1.38;;;1.15;;
54412;SDS011;41533;51.390;0.074;2022-09-29T10:26:26;1.00;;;0.90;;
54412;SDS011;41533;51.390;0.074;2022-09-29T10:29:02;1.83;;;0.82;;
54412;SDS011;41533;51.390;0.074;2022-09-29T10:31:31;0.98;;;0.93;;
54412;SDS011;41533;51.390;0.074;2022-09-29T10:36:52;1.00;;;0.93;;
54412;SDS011;41533;51.390;0.074;2022-09-29T10:42:49;1.92;;;0.80;;
54412;SDS011;41533;51.390;0.074;2022-09-29T10:45:00;0.75;;;0.75;;
54412;SDS011;41533;51.390;0.074;2022-09-29T10:47:28;1.08;;;0.98;;
54412;SDS011;41533;51.390;0.074;2022-09-29T10:50:06;1.92;;;0.93;;
54412;SDS011;41533;51.390;0.074;2022-09-29T10:52:33;1.10;;;0.82;;
54412;SDS011;41533;51.390;0.074;2022-09-29T10:55:02;0.63;;;0.60;;
54412;SDS011;41533;51.390;0.074;2022-09-29T10:57:30;1.88;;;0.77;;
54412;SDS011;41533;51.390;0.074;2022-09-29T10:59:58;1.48;;;0.80;;
54412;SDS011;41533;51.390;0.074;2022-09-29T11:02:30;0.77;;;0.75;;
54412;SDS011;41533;51.390;0.074;2022-09-29T11:04:59;1.65;;;1.10;;
54412;SDS011;41533;51.390;0.074;2022-09-29T11:07:27;3.47;;;1.15;;
54412;SDS011;41533;51.390;0.074;2022-09-29T11:09:54;0.88;;;0.60;;
54412;SDS011;41533;51.390;0.074;2022-09-29T11:12:29;1.00;;;1.00;;
54412;SDS011;41533;51.390;0.074;2022-09-29T11:14:58;0.60;;;0.60;;
54412;SDS011;41533;51.390;0.074;2022-09-29T11:17:27;1.75;;;1.10;;
54412;SDS011;41533;51.390;0.074;2022-09-29T11:19:56;2.90;;;0.80;;
54412;SDS011;41533;51.390;0.074;2022-09-29T11:30:22;1.13;;;0.80;;
54412;SDS011;41533;51.390;0.074;2022-09-29T11:33:00;1.70;;;1.13;;
54412;SDS011;41533;51.390;0.074;2022-09-29T11:40:50;0.70;;;0.70;;
54412;SDS011;41533;51.390;0.074;2022-09-29T11:48:49;0.95;;;0.60;;
54412;SDS011;41533;51.390;0.074;2022-09-29T12:11:53;0.82;;;0.60;;
54412;SDS011;41533;51.390;0.074;2022-09-29T12:17:12;0.88;;;0.88;;
54412;SDS011;41533;51.390;0.074;2022-09-29T12:19:40;1.38;;;0.70;;
54412;SDS011;41533;51.390;0.074;2022-09-29T12:22:10;0.52;;;0.52;;
54412;SDS011;41533;51.390;0.074;2022-09-29T12:24:45;0.40;;;0.40;;
54412;SDS011;41533;51.390;0.074;2022-09-29T12:27:15;1.15;;;0.80;;
54412;SDS011;41533;51.390;0.074;2022-09-29T12:29:52;1.42;;;0.80;;
54412;SDS011;41533;51.390;0.074;2022-09-29T12:32:25;0.55;;;0.50;;
54412;SDS011;41533;51.390;0.074;2022-09-29T12:35:05;0.63;;;0.52;;
54412;SDS011;41533;51.390;0.074;2022-09-29T12:37:38;0.75;;;0.60;;
54412;SDS011;41533;51.390;0.074;2022-09-29T12:40:18;0.68;;;0.50;;
54412;SDS011;41533;51.390;0.074;2022-09-29T12:50:43;0.50;;;0.50;;
54412;SDS011;41533;51.390;0.074;2022-09-29T12:58:22;1.55;;;0.70;;
54412;SDS011;41533;51.390;0.074;2022-09-29T13:00:53;1.73;;;1.02;;
54412;SDS011;41533;51.390;0.074;2022-09-29T13:03:30;0.73;;;0.57;;
54412;SDS011;41533;51.390;0.074;2022-09-29T13:06:12;1.27;;;0.80;;
54412;SDS011;41533;51.390;0.074;2022-09-29T13:08:50;0.52;;;0.52;;
54412;SDS011;41533;51.390;0.074;2022-09-29T13:14:02;1.80;;;0.80;;
54412;SDS011;41533;51.390;0.074;2022-09-29T13:22:02;1.33;;;0.82;;
54412;SDS011;41533;51.390;0.074;2022-09-29T13:24:38;2.67;;;0.60;;
54412;SDS011;41533;51.390;0.074;2022-09-29T13:29:43;1.25;;;0.70;;
54412;SDS011;41533;51.390;0.074;2022-09-29T13:32:13;0.90;;;0.63;;
54412;SDS011;41533;51.390;0.074;2022-09-29T13:34:44;0.65;;;0.60;;
54412;SDS011;41533;51.390;0.074;2022-09-29T13:37:13;2.33;;;1.10;;
54412;SDS011;41533;51.390;0.074;2022-09-29T13:39:41;0.95;;;0.80;;
54412;SDS011;41533;51.390;0.074;2022-09-29T13:45:12;2.35;;;0.55;;
54412;SDS011;41533;51.390;0.074;2022-09-29T13:47:45;0.45;;;0.45;;
54412;SDS011;41533;51.390;0.074;2022-09-29T13:53:44;0.52;;;0.50;;
54412;SDS011;41533;51.390;0.074;2022-09-29T13:58:29;1.00;;;0.70;;
54412;SDS011;41533;51.390;0.074;2022-09-29T14:00:58;1.58;;;0.50;;
54412;SDS011;41533;51.390;0.074;2022-09-29T14:06:06;1.15;;;0.77;;
54412;SDS011;41533;51.390;0.074;2022-09-29T14:16:44;0.65;;;0.57;;
54412;SDS011;41533;51.390;0.074;2022-09-29T14:21:44;0.50;;;0.50;;
54412;SDS011;41533;51.390;0.074;2022-09-29T14:27:18;0.70;;;0.60;;
54412;SDS011;41533;51.390;0.074;2022-09-29T14:29:49;0.30;;;0.30;;
54412;SDS011;41533;51.390;0.074;2022-09-29T14:32:19;0.93;;;0.70;;
54412;SDS011;41533;51.390;0.074;2022-09-29T14:34:47;0.90;;;0.40;;
54412;SDS011;41533;51.390;0.074;2022-09-29T14:37:17;0.55;;;0.50;;
54412;SDS011;41533;51.390;0.074;2022-09-29T14:39:46;0.50;;;0.50;;
54412;SDS011;41533;51.390;0.074;2022-09-29T14:42:33;1.38;;;0.52;;
54412;SDS011;41533;51.390;0.074;2022-09-29T14:45:01;1.20;;;0.45;;
54412;SDS011;41533;51.390;0.074;2022-09-29T14:50:51;0.60;;;0.55;;
54412;SDS011;41533;51.390;0.074;2022-09-29T14:53:41;0.30;;;0.30;;
54412;SDS011;41533;51.390;0.074;2022-09-29T15:01:26;1.35;;;0.43;;
54412;SDS011;41533;51.390;0.074;2022-09-29T15:03:55;0.60;;;0.50;;
54412;SDS011;41533;51.390;0.074;2022-09-29T15:06:25;0.60;;;0.60;;
54412;SDS011;41533;51.390;0.074;2022-09-29T15:11:31;0.70;;;0.50;;
54412;SDS011;41533;51.390;0.074;2022-09-29T15:13:59;1.20;;;0.60;;
54412;SDS011;41533;51.390;0.074;2022-09-29T15:16:36;0.57;;;0.45;;
54412;SDS011;41533;51.390;0.074;2022-09-29T15:24:46;0.60;;;0.30;;
54412;SDS011;41533;51.390;0.074;2022-09-29T15:27:11;0.57;;;0.50;;
54412;SDS011;41533;51.390;0.074;2022-09-29T15:29:39;0.88;;;0.60;;
54412;SDS011;41533;51.390;0.074;2022-09-29T15:32:17;0.50;;;0.40;;
54412;SDS011;41533;51.390;0.074;2022-09-29T15:34:45;0.57;;;0.40;;
54412;SDS011;41533;51.390;0.074;2022-09-29T15:37:17;0.40;;;0.40;;
54412;SDS011;41533;51.390;0.074;2022-09-29T15:39:48;0.40;;;0.40;;
54412;SDS011;41533;51.390;0.074;2022-09-29T15:42:18;1.02;;;0.60;;
54412;SDS011;41533;51.390;0.074;2022-09-29T15:44:52;1.67;;;0.80;;
54412;SDS011;41533;51.390;0.074;2022-09-29T15:47:40;0.80;;;0.80;;
54412;SDS011;41533;51.390;0.074;2022-09-29T15:50:18;5.15;;;0.55;;
54412;SDS011;41533;51.390;0.074;2022-09-29T15:52:46;2.80;;;1.10;;
54412;SDS011;41533;51.390;0.074;2022-09-29T15:55:14;1.52;;;0.90;;
54412;SDS011;41533;51.390;0.074;2022-09-29T15:57:43;1.27;;;0.63;;
54412;SDS011;41533;51.390;0.074;2022-09-29T16:05:30;2.20;;;0.70;;
54412;SDS011;41533;51.390;0.074;2022-09-29T16:10:29;1.70;;;0.40;;
54412;SDS011;41533;51.390;0.074;2022-09-29T16:13:01;3.20;;;0.80;;
54412;SDS011;41533;51.390;0.074;2022-09-29T16:15:32;0.73;;;0.55;;
54412;SDS011;41533;51.390;0.074;2022-09-29T16:18:01;0.45;;;0.43;;
54412;SDS011;41533;51.390;0.074;2022-09-29T16:20:29;0.77;;;0.60;;
54412;SDS011;41533;51.390;0.074;2022-09-29T16:23:07;1.42;;;0.50;;
54412;SDS011;41533;51.390;0.074;2022-09-29T16:25:34;3.33;;;0.63;;
54412;SDS011;41533;51.390;0.074;2022-09-29T16:28:01;0.52;;;0.47;;
54412;SDS011;41533;51.390;0.074;2022-09-29T16:30:34;0.35;;;0.35;;
54412;SDS011;41533;51.390;0.074;2022-09-29T16:33:05;0.73;;;0.60;;
54412;SDS011;41533;51.390;0.074;2022-09-29T16:35:41;0.80;;;0.50;;
54412;SDS011;41533;51.390;0.074;2022-09-29T16:38:43;1.63;;;0.63;;
54412;SDS011;41533;51.390;0.074;2022-09-29T16:41:07;1.83;;;0.90;;
54412;SDS011;41533;51.390;0.074;2022-09-29T16:43:35;0.63;;;0.50;;
54412;SDS011;41533;51.390;0.074;2022-09-29T16:46:05;1.17;;;0.70;;
54412;SDS011;41533;51.390;0.074;2022-09-29T16:48:35;1.40;;;0.63;;
54412;SDS011;41533;51.390;0.074;2022-09-29T16:51:05;0.63;;;0.50;;
54412;SDS011;41533;51.390;0.074;2022-09-29T16:53:38;0.52;;;0.50;;
54412;SDS011;41533;51.390;0.074;2022-09-29T16:56:08;0.38;;;0.38;;
54412;SDS011;41533;51.390;0.074;2022-09-29T16:58:36;0.82;;;0.60;;
54412;SDS011;41533;51.390;0.074;2022-09-29T17:01:03;0.63;;;0.63;;
54412;SDS011;41533;51.390;0.074;2022-09-29T17:03:30;2.67;;;0.70;;
54412;SDS011;41533;51.390;0.074;2022-09-29T17:05:58;0.95;;;0.60;;
54412;SDS011;41533;51.390;0.074;2022-09-29T17:08:26;0.60;;;0.60;;
54412;SDS011;41533;51.390;0.074;2022-09-29T17:10:55;0.47;;;0.40;;
54412;SDS011;41533;51.390;0.074;2022-09-29T17:13:22;0.98;;;0.70;;
54412;SDS011;41533;51.390;0.074;2022-09-29T17:15:51;0.68;;;0.68;;
54412;SDS011;41533;51.390;0.074;2022-09-29T17:18:19;0.60;;;0.60;;
54412;SDS011;41533;51.390;0.074;2022-09-29T17:20:46;0.88;;;0.52;;
54412;SDS011;41533;51.390;0.074;2022-09-29T17:23:13;0.82;;;0.75;;
54412;SDS011;41533;51.390;0.074;2022-09-29T17:25:42;1.55;;;0.93;;
54412;SDS011;41533;51.390;0.074;2022-09-29T17:28:13;1.40;;;0.85;;
54412;SDS011;41533;51.390;0.074;2022-09-29T17:30:42;1.77;;;0.73;;
54412;SDS011;41533;51.390;0.074;2022-09-29T17:33:13;0.75;;;0.75;;
54412;SDS011;41533;51.390;0.074;2022-09-29T17:35:43;1.20;;;1.00;;
54412;SDS011;41533;51.390;0.074;2022-09-29T17:38:11;0.77;;;0.75;;
54412;SDS011;41533;51.390;0.074;2022-09-29T17:43:12;1.85;;;1.17;;
54412;SDS011;41533;51.390;0.074;2022-09-29T17:45:39;1.90;;;0.90;;
54412;SDS011;41533;51.390;0.074;2022-09-29T17:48:07;1.00;;;0.90;;
54412;SDS011;41533;51.390;0.074;2022-09-29T17:50:37;0.80;;;0.60;;
54412;SDS011;41533;51.390;0.074;2022-09-29T17:53:06;1.27;;;0.93;;
54412;SDS011;41533;51.390;0.074;2022-09-29T17:55:33;1.58;;;0.88;;
54412;SDS011;41533;51.390;0.074;2022-09-29T17:58:01;5.15;;;1.30;;
54412;SDS011;41533;51.390;0.074;2022-09-29T18:03:01;2.63;;;0.85;;
54412;SDS011;41533;51.390;0.074;2022-09-29T18:05:29;2.25;;;1.00;;
54412;SDS011;41533;51.390;0.074;2022-09-29T18:07:57;1.58;;;0.98;;
54412;SDS011;41533;51.390;0.074;2022-09-29T18:10:25;4.15;;;1.63;;